sensor_id;sensor_type;location;lat;lon;timestamp;P1;durP1;ratioP1;P2;durP2;ratioP2
10605;SDS011;5350;42.698;23.148;2023-07-22T00:01:49;10.38;;;4.85;;
10605;SDS011;5350;42.698;23.148;2023-07-22T00:04:16;10.98;;;5.00;;
10605;SDS011;5350;42.698;23.148;2023-07-22T00:06:43;8.45;;;4.90;;
10605;SDS011;5350;42.698;23.148;2023-07-22T00:09:11;8.75;;;5.35;;
10605;SDS011;5350;42.698;23.148;2023-07-22T00:11:38;8.38;;;5.15;;
10605;SDS011;5350;42.698;23.148;2023-07-22T00:14:05;10.15;;;5.00;;
10605;SDS011;5350;42.698;23.148;2023-07-22T00:16:32;9.98;;;5.07;;
10605;SDS011;5350;42.698;23.148;2023-07-22T00:18:59;12.95;;;5.47;;
10605;SDS011;5350;42.698;23.148;2023-07-22T00:21:25;9.88;;;5.35;;
10605;SDS011;5350;42.698;23.148;2023-07-22T00:23:54;8.38;;;4.78;;
10605;SDS011;5350;42.698;23.148;2023-07-22T00:26:22;8.05;;;5.00;;
10605;SDS011;5350;42.698;23.148;2023-07-22T00:28:49;9.23;;;4.93;;
10605;SDS011;5350;42.698;23.148;2023-07-22T00:31:15;7.72;;;4.75;;
10605;SDS011;5350;42.698;23.148;2023-07-22T00:33:42;9.18;;;5.20;;
10605;SDS011;5350;42.698;23.148;2023-07-22T00:36:09;10.80;;;5.78;;
10605;SDS011;5350;42.698;23.148;2023-07-22T00:38:35;8.60;;;5.03;;
10605;SDS011;5350;42.698;23.148;2023-07-22T00:41:02;6.47;;;5.07;;
10605;SDS011;5350;42.698;23.148;2023-07-22T00:43:31;8.43;;;4.63;;
10605;SDS011;5350;42.698;23.148;2023-07-22T00:45:58;8.27;;;4.60;;
10605;SDS011;5350;42.698;23.148;2023-07-22T00:48:24;8.30;;;5.50;;
10605;SDS011;5350;42.698;23.148;2023-07-22T00:50:53;9.93;;;5.38;;
10605;SDS011;5350;42.698;23.148;2023-07-22T00:53:20;5.68;;;4.93;;
10605;SDS011;5350;42.698;23.148;2023-07-22T00:55:47;7.53;;;4.63;;
10605;SDS011;5350;42.698;23.148;2023-07-22T00:58:14;8.13;;;4.88;;
10605;SDS011;5350;42.698;23.148;2023-07-22T01:00:42;7.55;;;5.03;;
10605;SDS011;5350;42.698;23.148;2023-07-22T01:03:09;13.68;;;6.00;;
10605;SDS011;5350;42.698;23.148;2023-07-22T01:05:36;7.47;;;5.07;;
10605;SDS011;5350;42.698;23.148;2023-07-22T01:08:04;7.80;;;4.95;;
10605;SDS011;5350;42.698;23.148;2023-07-22T01:10:31;8.25;;;5.32;;
10605;SDS011;5350;42.698;23.148;2023-07-22T01:12:58;11.07;;;5.63;;
10605;SDS011;5350;42.698;23.148;2023-07-22T01:15:24;9.77;;;4.80;;
10605;SDS011;5350;42.698;23.148;2023-07-22T01:17:53;7.60;;;5.30;;
10605;SDS011;5350;42.698;23.148;2023-07-22T01:20:21;8.93;;;5.20;;
10605;SDS011;5350;42.698;23.148;2023-07-22T01:22:51;8.52;;;5.60;;
10605;SDS011;5350;42.698;23.148;2023-07-22T01:25:19;9.13;;;5.00;;
10605;SDS011;5350;42.698;23.148;2023-07-22T01:27:47;7.72;;;5.60;;
10605;SDS011;5350;42.698;23.148;2023-07-22T01:30:14;9.38;;;5.30;;
10605;SDS011;5350;42.698;23.148;2023-07-22T01:32:41;9.00;;;5.40;;
10605;SDS011;5350;42.698;23.148;2023-07-22T01:35:08;8.05;;;5.43;;
10605;SDS011;5350;42.698;23.148;2023-07-22T01:37:35;11.60;;;5.72;;
10605;SDS011;5350;42.698;23.148;2023-07-22T01:40:04;10.70;;;5.35;;
10605;SDS011;5350;42.698;23.148;2023-07-22T01:42:36;10.02;;;5.55;;
10605;SDS011;5350;42.698;23.148;2023-07-22T01:45:04;10.13;;;5.45;;
10605;SDS011;5350;42.698;23.148;2023-07-22T01:47:33;11.63;;;5.60;;
10605;SDS011;5350;42.698;23.148;2023-07-22T01:49:59;7.90;;;6.03;;
10605;SDS011;5350;42.698;23.148;2023-07-22T01:52:26;12.07;;;5.85;;
10605;SDS011;5350;42.698;23.148;2023-07-22T01:54:53;10.73;;;5.80;;
10605;SDS011;5350;42.698;23.148;2023-07-22T01:57:21;10.88;;;6.13;;
10605;SDS011;5350;42.698;23.148;2023-07-22T01:59:48;12.55;;;5.40;;
10605;SDS011;5350;42.698;23.148;2023-07-22T02:02:14;9.70;;;5.80;;
10605;SDS011;5350;42.698;23.148;2023-07-22T02:04:41;10.45;;;5.45;;
10605;SDS011;5350;42.698;23.148;2023-07-22T02:07:08;7.75;;;5.53;;
10605;SDS011;5350;42.698;23.148;2023-07-22T02:09:35;12.02;;;5.72;;
10605;SDS011;5350;42.698;23.148;2023-07-22T02:12:02;9.65;;;5.57;;
10605;SDS011;5350;42.698;23.148;2023-07-22T02:14:30;10.15;;;5.72;;
10605;SDS011;5350;42.698;23.148;2023-07-22T02:16:57;10.85;;;5.65;;
10605;SDS011;5350;42.698;23.148;2023-07-22T02:19:24;8.40;;;5.85;;
10605;SDS011;5350;42.698;23.148;2023-07-22T02:21:51;10.32;;;6.07;;
10605;SDS011;5350;42.698;23.148;2023-07-22T02:24:18;12.27;;;5.60;;
10605;SDS011;5350;42.698;23.148;2023-07-22T02:26:44;8.95;;;5.05;;
10605;SDS011;5350;42.698;23.148;2023-07-22T02:29:11;7.68;;;5.78;;
10605;SDS011;5350;42.698;23.148;2023-07-22T02:31:39;10.43;;;5.57;;
10605;SDS011;5350;42.698;23.148;2023-07-22T02:34:06;8.00;;;6.10;;
10605;SDS011;5350;42.698;23.148;2023-07-22T02:36:32;8.57;;;5.75;;
10605;SDS011;5350;42.698;23.148;2023-07-22T02:38:59;11.55;;;5.50;;
10605;SDS011;5350;42.698;23.148;2023-07-22T02:41:26;11.13;;;5.88;;
10605;SDS011;5350;42.698;23.148;2023-07-22T02:43:53;14.02;;;5.68;;
10605;SDS011;5350;42.698;23.148;2023-07-22T02:46:19;11.10;;;6.05;;
10605;SDS011;5350;42.698;23.148;2023-07-22T02:48:47;8.20;;;5.60;;
10605;SDS011;5350;42.698;23.148;2023-07-22T02:51:14;10.32;;;6.15;;
10605;SDS011;5350;42.698;23.148;2023-07-22T02:53:41;7.70;;;5.50;;
10605;SDS011;5350;42.698;23.148;2023-07-22T02:56:09;12.05;;;6.13;;
10605;SDS011;5350;42.698;23.148;2023-07-22T02:58:36;6.47;;;5.72;;
10605;SDS011;5350;42.698;23.148;2023-07-22T03:01:03;11.82;;;6.20;;
10605;SDS011;5350;42.698;23.148;2023-07-22T03:03:30;9.85;;;6.20;;
10605;SDS011;5350;42.698;23.148;2023-07-22T03:05:59;7.78;;;5.65;;
10605;SDS011;5350;42.698;23.148;2023-07-22T03:08:26;8.23;;;6.10;;
10605;SDS011;5350;42.698;23.148;2023-07-22T03:10:53;8.02;;;5.68;;
10605;SDS011;5350;42.698;23.148;2023-07-22T03:13:19;10.73;;;5.90;;
10605;SDS011;5350;42.698;23.148;2023-07-22T03:15:46;8.07;;;5.90;;
10605;SDS011;5350;42.698;23.148;2023-07-22T03:18:13;8.88;;;5.90;;
10605;SDS011;5350;42.698;23.148;2023-07-22T03:20:39;9.98;;;6.72;;
10605;SDS011;5350;42.698;23.148;2023-07-22T03:23:08;10.77;;;6.10;;
10605;SDS011;5350;42.698;23.148;2023-07-22T03:25:34;9.82;;;5.90;;
10605;SDS011;5350;42.698;23.148;2023-07-22T03:28:02;9.68;;;6.38;;
10605;SDS011;5350;42.698;23.148;2023-07-22T03:30:30;10.40;;;6.82;;
10605;SDS011;5350;42.698;23.148;2023-07-22T03:32:57;10.27;;;6.45;;
10605;SDS011;5350;42.698;23.148;2023-07-22T03:35:23;10.30;;;5.57;;
10605;SDS011;5350;42.698;23.148;2023-07-22T03:37:50;15.43;;;6.07;;
10605;SDS011;5350;42.698;23.148;2023-07-22T03:40:18;7.18;;;5.53;;
10605;SDS011;5350;42.698;23.148;2023-07-22T03:42:45;11.98;;;5.75;;
10605;SDS011;5350;42.698;23.148;2023-07-22T03:45:12;13.35;;;6.38;;
10605;SDS011;5350;42.698;23.148;2023-07-22T03:47:39;9.60;;;5.68;;
10605;SDS011;5350;42.698;23.148;2023-07-22T03:50:07;8.57;;;5.78;;
10605;SDS011;5350;42.698;23.148;2023-07-22T03:52:34;9.60;;;6.00;;
10605;SDS011;5350;42.698;23.148;2023-07-22T03:55:01;9.63;;;6.28;;
10605;SDS011;5350;42.698;23.148;2023-07-22T03:57:29;8.77;;;5.88;;
10605;SDS011;5350;42.698;23.148;2023-07-22T03:59:56;9.60;;;5.97;;
10605;SDS011;5350;42.698;23.148;2023-07-22T04:02:23;11.82;;;6.72;;
10605;SDS011;5350;42.698;23.148;2023-07-22T04:04:51;6.40;;;5.80;;
10605;SDS011;5350;42.698;23.148;2023-07-22T04:07:18;7.65;;;5.72;;
10605;SDS011;5350;42.698;23.148;2023-07-22T04:09:44;7.75;;;5.60;;
10605;SDS011;5350;42.698;23.148;2023-07-22T04:12:11;7.28;;;6.00;;
10605;SDS011;5350;42.698;23.148;2023-07-22T04:14:39;9.05;;;6.25;;
10605;SDS011;5350;42.698;23.148;2023-07-22T04:17:06;9.57;;;6.75;;
10605;SDS011;5350;42.698;23.148;2023-07-22T04:19:33;13.07;;;6.20;;
10605;SDS011;5350;42.698;23.148;2023-07-22T04:22:00;9.40;;;5.95;;
10605;SDS011;5350;42.698;23.148;2023-07-22T04:24:29;10.18;;;5.80;;
10605;SDS011;5350;42.698;23.148;2023-07-22T04:26:56;12.18;;;7.32;;
10605;SDS011;5350;42.698;23.148;2023-07-22T04:29:23;15.70;;;6.07;;
10605;SDS011;5350;42.698;23.148;2023-07-22T04:31:51;11.05;;;5.47;;
10605;SDS011;5350;42.698;23.148;2023-07-22T04:34:18;8.52;;;5.95;;
10605;SDS011;5350;42.698;23.148;2023-07-22T04:36:44;9.25;;;6.20;;
10605;SDS011;5350;42.698;23.148;2023-07-22T04:39:11;9.80;;;5.50;;
10605;SDS011;5350;42.698;23.148;2023-07-22T04:41:38;9.77;;;5.72;;
10605;SDS011;5350;42.698;23.148;2023-07-22T04:44:05;10.00;;;5.38;;
10605;SDS011;5350;42.698;23.148;2023-07-22T04:46:31;9.57;;;5.68;;
10605;SDS011;5350;42.698;23.148;2023-07-22T04:48:59;8.48;;;5.97;;
10605;SDS011;5350;42.698;23.148;2023-07-22T04:51:27;10.77;;;5.93;;
10605;SDS011;5350;42.698;23.148;2023-07-22T04:53:53;11.75;;;5.93;;
10605;SDS011;5350;42.698;23.148;2023-07-22T04:56:20;16.23;;;6.13;;
10605;SDS011;5350;42.698;23.148;2023-07-22T04:58:47;10.15;;;5.40;;
10605;SDS011;5350;42.698;23.148;2023-07-22T05:01:14;9.15;;;5.45;;
10605;SDS011;5350;42.698;23.148;2023-07-22T05:03:41;10.88;;;6.07;;
10605;SDS011;5350;42.698;23.148;2023-07-22T05:06:10;11.25;;;5.90;;
10605;SDS011;5350;42.698;23.148;2023-07-22T05:08:37;13.48;;;5.45;;
10605;SDS011;5350;42.698;23.148;2023-07-22T05:11:03;12.15;;;5.93;;
10605;SDS011;5350;42.698;23.148;2023-07-22T05:13:30;9.25;;;5.85;;
10605;SDS011;5350;42.698;23.148;2023-07-22T05:15:57;10.60;;;5.95;;
10605;SDS011;5350;42.698;23.148;2023-07-22T05:18:24;15.65;;;6.82;;
10605;SDS011;5350;42.698;23.148;2023-07-22T05:20:50;15.00;;;7.50;;
10605;SDS011;5350;42.698;23.148;2023-07-22T05:23:18;13.07;;;7.78;;
10605;SDS011;5350;42.698;23.148;2023-07-22T05:25:50;17.15;;;6.88;;
10605;SDS011;5350;42.698;23.148;2023-07-22T05:28:17;12.18;;;6.63;;
10605;SDS011;5350;42.698;23.148;2023-07-22T05:30:44;13.82;;;6.93;;
10605;SDS011;5350;42.698;23.148;2023-07-22T05:33:10;16.70;;;6.47;;
10605;SDS011;5350;42.698;23.148;2023-07-22T05:35:37;10.43;;;6.38;;
10605;SDS011;5350;42.698;23.148;2023-07-22T05:38:04;12.18;;;6.28;;
10605;SDS011;5350;42.698;23.148;2023-07-22T05:40:32;10.85;;;5.75;;
10605;SDS011;5350;42.698;23.148;2023-07-22T05:42:59;13.88;;;7.10;;
10605;SDS011;5350;42.698;23.148;2023-07-22T05:45:26;10.82;;;6.50;;
10605;SDS011;5350;42.698;23.148;2023-07-22T05:47:52;10.48;;;6.30;;
10605;SDS011;5350;42.698;23.148;2023-07-22T05:50:19;9.43;;;6.22;;
10605;SDS011;5350;42.698;23.148;2023-07-22T05:52:46;14.73;;;6.55;;
10605;SDS011;5350;42.698;23.148;2023-07-22T05:55:13;10.55;;;6.03;;
10605;SDS011;5350;42.698;23.148;2023-07-22T05:57:41;11.60;;;5.95;;
10605;SDS011;5350;42.698;23.148;2023-07-22T06:00:08;11.70;;;5.82;;
10605;SDS011;5350;42.698;23.148;2023-07-22T06:02:44;9.98;;;6.13;;
10605;SDS011;5350;42.698;23.148;2023-07-22T06:05:10;10.50;;;6.30;;
10605;SDS011;5350;42.698;23.148;2023-07-22T06:07:37;8.55;;;6.35;;
10605;SDS011;5350;42.698;23.148;2023-07-22T06:10:05;7.15;;;5.97;;
10605;SDS011;5350;42.698;23.148;2023-07-22T06:12:33;9.00;;;6.32;;
10605;SDS011;5350;42.698;23.148;2023-07-22T06:15:02;8.52;;;5.75;;
10605;SDS011;5350;42.698;23.148;2023-07-22T06:17:29;8.30;;;6.15;;
10605;SDS011;5350;42.698;23.148;2023-07-22T06:19:55;9.80;;;6.38;;
10605;SDS011;5350;42.698;23.148;2023-07-22T06:22:22;8.38;;;6.70;;
10605;SDS011;5350;42.698;23.148;2023-07-22T06:24:49;9.23;;;6.35;;
10605;SDS011;5350;42.698;23.148;2023-07-22T06:27:15;8.18;;;6.60;;
10605;SDS011;5350;42.698;23.148;2023-07-22T06:29:42;10.50;;;7.05;;
10605;SDS011;5350;42.698;23.148;2023-07-22T06:32:10;12.60;;;6.85;;
10605;SDS011;5350;42.698;23.148;2023-07-22T06:34:37;9.02;;;6.07;;
10605;SDS011;5350;42.698;23.148;2023-07-22T06:37:04;11.00;;;6.93;;
10605;SDS011;5350;42.698;23.148;2023-07-22T06:39:31;8.60;;;6.75;;
10605;SDS011;5350;42.698;23.148;2023-07-22T06:41:58;11.98;;;6.50;;
10605;SDS011;5350;42.698;23.148;2023-07-22T06:44:24;15.52;;;7.20;;
10605;SDS011;5350;42.698;23.148;2023-07-22T06:46:51;11.73;;;6.78;;
10605;SDS011;5350;42.698;23.148;2023-07-22T06:49:19;14.75;;;6.55;;
10605;SDS011;5350;42.698;23.148;2023-07-22T06:51:46;10.15;;;7.38;;
10605;SDS011;5350;42.698;23.148;2023-07-22T06:54:12;12.63;;;7.47;;
10605;SDS011;5350;42.698;23.148;2023-07-22T06:56:39;12.93;;;7.80;;
10605;SDS011;5350;42.698;23.148;2023-07-22T06:59:06;9.40;;;7.32;;
10605;SDS011;5350;42.698;23.148;2023-07-22T07:01:33;10.43;;;7.60;;
10605;SDS011;5350;42.698;23.148;2023-07-22T07:04:00;12.13;;;7.00;;
10605;SDS011;5350;42.698;23.148;2023-07-22T07:06:29;9.60;;;6.97;;
10605;SDS011;5350;42.698;23.148;2023-07-22T07:08:56;10.32;;;7.05;;
10605;SDS011;5350;42.698;23.148;2023-07-22T07:11:25;10.90;;;7.30;;
10605;SDS011;5350;42.698;23.148;2023-07-22T07:13:52;10.75;;;7.20;;
10605;SDS011;5350;42.698;23.148;2023-07-22T07:16:22;9.38;;;7.60;;
10605;SDS011;5350;42.698;23.148;2023-07-22T07:18:50;15.95;;;7.38;;
10605;SDS011;5350;42.698;23.148;2023-07-22T07:21:17;10.18;;;7.22;;
10605;SDS011;5350;42.698;23.148;2023-07-22T07:23:45;12.18;;;7.65;;
10605;SDS011;5350;42.698;23.148;2023-07-22T07:26:12;10.48;;;6.97;;
10605;SDS011;5350;42.698;23.148;2023-07-22T07:28:38;11.38;;;7.22;;
10605;SDS011;5350;42.698;23.148;2023-07-22T07:31:05;12.25;;;7.20;;
10605;SDS011;5350;42.698;23.148;2023-07-22T07:33:32;7.90;;;7.13;;
10605;SDS011;5350;42.698;23.148;2023-07-22T07:35:59;13.63;;;8.10;;
10605;SDS011;5350;42.698;23.148;2023-07-22T07:38:26;9.25;;;7.10;;
10605;SDS011;5350;42.698;23.148;2023-07-22T07:40:55;11.63;;;7.28;;
10605;SDS011;5350;42.698;23.148;2023-07-22T07:43:23;15.38;;;8.63;;
10605;SDS011;5350;42.698;23.148;2023-07-22T07:45:50;13.88;;;7.93;;
10605;SDS011;5350;42.698;23.148;2023-07-22T07:48:37;13.38;;;7.38;;
10605;SDS011;5350;42.698;23.148;2023-07-22T07:51:04;14.30;;;7.40;;
10605;SDS011;5350;42.698;23.148;2023-07-22T07:53:31;12.82;;;7.55;;
10605;SDS011;5350;42.698;23.148;2023-07-22T07:55:59;12.25;;;7.15;;
10605;SDS011;5350;42.698;23.148;2023-07-22T07:58:26;12.23;;;7.70;;
10605;SDS011;5350;42.698;23.148;2023-07-22T08:00:52;11.35;;;7.40;;
10605;SDS011;5350;42.698;23.148;2023-07-22T08:03:19;13.00;;;7.63;;
10605;SDS011;5350;42.698;23.148;2023-07-22T08:05:46;13.00;;;7.53;;
10605;SDS011;5350;42.698;23.148;2023-07-22T08:08:12;15.38;;;7.88;;
10605;SDS011;5350;42.698;23.148;2023-07-22T08:10:39;11.40;;;8.20;;
10605;SDS011;5350;42.698;23.148;2023-07-22T08:13:09;14.02;;;7.82;;
10605;SDS011;5350;42.698;23.148;2023-07-22T08:15:36;11.77;;;7.78;;
10605;SDS011;5350;42.698;23.148;2023-07-22T08:18:03;14.18;;;8.07;;
10605;SDS011;5350;42.698;23.148;2023-07-22T08:20:29;13.52;;;8.13;;
10605;SDS011;5350;42.698;23.148;2023-07-22T08:22:56;13.38;;;7.75;;
10605;SDS011;5350;42.698;23.148;2023-07-22T08:25:23;11.80;;;8.13;;
10605;SDS011;5350;42.698;23.148;2023-07-22T08:27:50;14.57;;;8.43;;
10605;SDS011;5350;42.698;23.148;2023-07-22T08:30:18;13.13;;;8.05;;
10605;SDS011;5350;42.698;23.148;2023-07-22T08:32:45;11.00;;;8.35;;
10605;SDS011;5350;42.698;23.148;2023-07-22T08:35:11;12.80;;;8.57;;
10605;SDS011;5350;42.698;23.148;2023-07-22T08:37:38;12.20;;;7.63;;
10605;SDS011;5350;42.698;23.148;2023-07-22T08:40:05;15.15;;;7.90;;
10605;SDS011;5350;42.698;23.148;2023-07-22T08:42:33;13.13;;;8.50;;
10605;SDS011;5350;42.698;23.148;2023-07-22T08:45:03;14.35;;;7.72;;
10605;SDS011;5350;42.698;23.148;2023-07-22T08:47:33;14.52;;;7.97;;
10605;SDS011;5350;42.698;23.148;2023-07-22T08:50:01;14.07;;;8.23;;
10605;SDS011;5350;42.698;23.148;2023-07-22T08:52:32;19.80;;;8.27;;
10605;SDS011;5350;42.698;23.148;2023-07-22T08:54:59;13.70;;;7.90;;
10605;SDS011;5350;42.698;23.148;2023-07-22T08:57:27;16.83;;;6.55;;
10605;SDS011;5350;42.698;23.148;2023-07-22T08:59:56;17.40;;;7.05;;
10605;SDS011;5350;42.698;23.148;2023-07-22T09:02:24;16.33;;;7.22;;
10605;SDS011;5350;42.698;23.148;2023-07-22T09:04:53;14.23;;;6.28;;
10605;SDS011;5350;42.698;23.148;2023-07-22T09:07:19;15.20;;;6.43;;
10605;SDS011;5350;42.698;23.148;2023-07-22T09:09:46;11.77;;;5.93;;
10605;SDS011;5350;42.698;23.148;2023-07-22T09:12:14;14.60;;;6.93;;
10605;SDS011;5350;42.698;23.148;2023-07-22T09:14:41;18.83;;;6.63;;
10605;SDS011;5350;42.698;23.148;2023-07-22T09:17:09;20.98;;;6.50;;
10605;SDS011;5350;42.698;23.148;2023-07-22T09:19:35;15.63;;;6.28;;
10605;SDS011;5350;42.698;23.148;2023-07-22T09:22:04;14.57;;;6.05;;
10605;SDS011;5350;42.698;23.148;2023-07-22T09:24:31;10.88;;;6.43;;
10605;SDS011;5350;42.698;23.148;2023-07-22T09:26:57;20.73;;;6.75;;
10605;SDS011;5350;42.698;23.148;2023-07-22T09:29:35;14.70;;;5.90;;
10605;SDS011;5350;42.698;23.148;2023-07-22T09:32:03;18.33;;;6.25;;
10605;SDS011;5350;42.698;23.148;2023-07-22T09:34:30;15.75;;;6.35;;
10605;SDS011;5350;42.698;23.148;2023-07-22T09:36:57;16.58;;;6.18;;
10605;SDS011;5350;42.698;23.148;2023-07-22T09:39:28;18.42;;;5.63;;
10605;SDS011;5350;42.698;23.148;2023-07-22T09:41:54;18.45;;;6.00;;
10605;SDS011;5350;42.698;23.148;2023-07-22T09:44:21;17.15;;;6.20;;
10605;SDS011;5350;42.698;23.148;2023-07-22T09:46:49;12.23;;;5.70;;
10605;SDS011;5350;42.698;23.148;2023-07-22T09:49:16;17.15;;;6.10;;
10605;SDS011;5350;42.698;23.148;2023-07-22T09:51:44;15.40;;;5.70;;
10605;SDS011;5350;42.698;23.148;2023-07-22T09:54:11;16.08;;;5.45;;
10605;SDS011;5350;42.698;23.148;2023-07-22T09:56:45;15.70;;;5.93;;
10605;SDS011;5350;42.698;23.148;2023-07-22T09:59:13;11.48;;;5.35;;
10605;SDS011;5350;42.698;23.148;2023-07-22T10:01:40;15.35;;;5.93;;
10605;SDS011;5350;42.698;23.148;2023-07-22T10:04:08;19.38;;;5.57;;
10605;SDS011;5350;42.698;23.148;2023-07-22T10:06:36;21.45;;;5.88;;
10605;SDS011;5350;42.698;23.148;2023-07-22T10:09:05;16.70;;;5.35;;
10605;SDS011;5350;42.698;23.148;2023-07-22T10:11:36;23.70;;;5.60;;
10605;SDS011;5350;42.698;23.148;2023-07-22T10:14:05;19.58;;;5.88;;
10605;SDS011;5350;42.698;23.148;2023-07-22T10:16:32;17.80;;;5.70;;
10605;SDS011;5350;42.698;23.148;2023-07-22T10:18:59;23.35;;;6.68;;
10605;SDS011;5350;42.698;23.148;2023-07-22T10:21:26;15.70;;;5.95;;
10605;SDS011;5350;42.698;23.148;2023-07-22T10:23:55;19.17;;;6.18;;
10605;SDS011;5350;42.698;23.148;2023-07-22T10:26:22;14.05;;;5.63;;
10605;SDS011;5350;42.698;23.148;2023-07-22T10:28:48;14.98;;;6.25;;
10605;SDS011;5350;42.698;23.148;2023-07-22T10:31:17;15.75;;;5.95;;
10605;SDS011;5350;42.698;23.148;2023-07-22T10:33:45;16.70;;;5.90;;
10605;SDS011;5350;42.698;23.148;2023-07-22T10:36:13;18.80;;;6.50;;
10605;SDS011;5350;42.698;23.148;2023-07-22T10:38:41;17.67;;;5.63;;
10605;SDS011;5350;42.698;23.148;2023-07-22T10:41:11;21.35;;;5.90;;
10605;SDS011;5350;42.698;23.148;2023-07-22T10:43:38;19.30;;;5.75;;
10605;SDS011;5350;42.698;23.148;2023-07-22T10:46:06;24.05;;;6.13;;
10605;SDS011;5350;42.698;23.148;2023-07-22T10:48:37;23.90;;;5.78;;
10605;SDS011;5350;42.698;23.148;2023-07-22T10:51:07;23.77;;;5.35;;
10605;SDS011;5350;42.698;23.148;2023-07-22T10:53:38;21.92;;;6.03;;
10605;SDS011;5350;42.698;23.148;2023-07-22T10:56:12;20.48;;;5.90;;
10605;SDS011;5350;42.698;23.148;2023-07-22T10:58:57;21.25;;;5.70;;
10605;SDS011;5350;42.698;23.148;2023-07-22T11:01:35;19.75;;;5.18;;
10605;SDS011;5350;42.698;23.148;2023-07-22T11:04:06;15.18;;;5.20;;
10605;SDS011;5350;42.698;23.148;2023-07-22T11:06:36;16.23;;;5.80;;
10605;SDS011;5350;42.698;23.148;2023-07-22T11:09:03;23.65;;;6.22;;
10605;SDS011;5350;42.698;23.148;2023-07-22T11:11:37;18.45;;;6.07;;
10605;SDS011;5350;42.698;23.148;2023-07-22T11:14:13;15.95;;;5.55;;
10605;SDS011;5350;42.698;23.148;2023-07-22T11:16:41;22.33;;;5.80;;
10605;SDS011;5350;42.698;23.148;2023-07-22T11:19:10;26.40;;;6.28;;
10605;SDS011;5350;42.698;23.148;2023-07-22T11:21:38;17.17;;;5.50;;
10605;SDS011;5350;42.698;23.148;2023-07-22T11:24:05;15.18;;;5.55;;
10605;SDS011;5350;42.698;23.148;2023-07-22T11:26:33;21.42;;;5.68;;
10605;SDS011;5350;42.698;23.148;2023-07-22T11:29:00;18.25;;;5.70;;
10605;SDS011;5350;42.698;23.148;2023-07-22T11:31:31;20.38;;;6.85;;
10605;SDS011;5350;42.698;23.148;2023-07-22T11:33:58;25.33;;;6.40;;
10605;SDS011;5350;42.698;23.148;2023-07-22T11:36:26;18.38;;;5.72;;
10605;SDS011;5350;42.698;23.148;2023-07-22T11:38:53;14.75;;;5.55;;
10605;SDS011;5350;42.698;23.148;2023-07-22T11:41:20;16.15;;;5.55;;
10605;SDS011;5350;42.698;23.148;2023-07-22T11:43:47;17.98;;;5.82;;
10605;SDS011;5350;42.698;23.148;2023-07-22T11:46:14;17.35;;;5.53;;
10605;SDS011;5350;42.698;23.148;2023-07-22T11:48:48;19.42;;;5.38;;
10605;SDS011;5350;42.698;23.148;2023-07-22T11:51:17;21.20;;;6.03;;
10605;SDS011;5350;42.698;23.148;2023-07-22T11:53:47;21.30;;;5.75;;
10605;SDS011;5350;42.698;23.148;2023-07-22T11:56:18;15.98;;;5.93;;
10605;SDS011;5350;42.698;23.148;2023-07-22T11:58:50;23.15;;;6.10;;
10605;SDS011;5350;42.698;23.148;2023-07-22T12:01:17;19.83;;;5.70;;
10605;SDS011;5350;42.698;23.148;2023-07-22T12:03:44;19.48;;;5.68;;
10605;SDS011;5350;42.698;23.148;2023-07-22T12:06:11;25.83;;;6.38;;
10605;SDS011;5350;42.698;23.148;2023-07-22T12:08:42;20.35;;;5.65;;
10605;SDS011;5350;42.698;23.148;2023-07-22T12:11:16;21.75;;;6.05;;
10605;SDS011;5350;42.698;23.148;2023-07-22T12:13:44;15.93;;;5.95;;
10605;SDS011;5350;42.698;23.148;2023-07-22T12:16:20;30.67;;;6.57;;
10605;SDS011;5350;42.698;23.148;2023-07-22T12:18:47;19.45;;;5.20;;
10605;SDS011;5350;42.698;23.148;2023-07-22T12:21:14;19.58;;;6.03;;
10605;SDS011;5350;42.698;23.148;2023-07-22T12:23:41;16.65;;;6.20;;
10605;SDS011;5350;42.698;23.148;2023-07-22T12:26:09;19.50;;;5.88;;
10605;SDS011;5350;42.698;23.148;2023-07-22T12:28:37;18.90;;;5.72;;
10605;SDS011;5350;42.698;23.148;2023-07-22T12:31:03;19.33;;;5.70;;
10605;SDS011;5350;42.698;23.148;2023-07-22T12:33:30;17.67;;;5.60;;
10605;SDS011;5350;42.698;23.148;2023-07-22T12:35:57;20.05;;;5.82;;
10605;SDS011;5350;42.698;23.148;2023-07-22T12:38:24;17.50;;;6.68;;
10605;SDS011;5350;42.698;23.148;2023-07-22T12:40:51;17.15;;;5.50;;
10605;SDS011;5350;42.698;23.148;2023-07-22T12:43:17;21.83;;;5.22;;
10605;SDS011;5350;42.698;23.148;2023-07-22T12:45:45;16.33;;;5.18;;
10605;SDS011;5350;42.698;23.148;2023-07-22T12:48:12;20.20;;;5.85;;
10605;SDS011;5350;42.698;23.148;2023-07-22T12:50:39;22.00;;;6.38;;
10605;SDS011;5350;42.698;23.148;2023-07-22T12:53:06;21.10;;;5.82;;
10605;SDS011;5350;42.698;23.148;2023-07-22T12:55:33;17.65;;;5.85;;
10605;SDS011;5350;42.698;23.148;2023-07-22T12:58:00;19.25;;;5.80;;
10605;SDS011;5350;42.698;23.148;2023-07-22T13:00:27;21.15;;;6.18;;
10605;SDS011;5350;42.698;23.148;2023-07-22T13:02:55;22.48;;;6.28;;
10605;SDS011;5350;42.698;23.148;2023-07-22T13:05:23;21.65;;;6.22;;
10605;SDS011;5350;42.698;23.148;2023-07-22T13:07:50;25.52;;;5.90;;
10605;SDS011;5350;42.698;23.148;2023-07-22T13:10:18;21.92;;;5.60;;
10605;SDS011;5350;42.698;23.148;2023-07-22T13:12:47;21.60;;;6.18;;
10605;SDS011;5350;42.698;23.148;2023-07-22T13:15:13;23.65;;;6.03;;
10605;SDS011;5350;42.698;23.148;2023-07-22T13:17:40;22.52;;;6.20;;
10605;SDS011;5350;42.698;23.148;2023-07-22T13:20:09;19.98;;;5.97;;
10605;SDS011;5350;42.698;23.148;2023-07-22T13:22:37;19.23;;;5.60;;
10605;SDS011;5350;42.698;23.148;2023-07-22T13:25:04;19.98;;;6.15;;
10605;SDS011;5350;42.698;23.148;2023-07-22T13:27:31;31.98;;;6.30;;
10605;SDS011;5350;42.698;23.148;2023-07-22T13:29:58;22.67;;;5.97;;
10605;SDS011;5350;42.698;23.148;2023-07-22T13:32:26;18.58;;;6.18;;
10605;SDS011;5350;42.698;23.148;2023-07-22T13:34:53;23.70;;;5.85;;
10605;SDS011;5350;42.698;23.148;2023-07-22T13:37:21;22.60;;;6.57;;
10605;SDS011;5350;42.698;23.148;2023-07-22T13:39:47;24.60;;;5.82;;
10605;SDS011;5350;42.698;23.148;2023-07-22T13:42:14;20.40;;;5.75;;
10605;SDS011;5350;42.698;23.148;2023-07-22T13:44:41;23.60;;;5.75;;
10605;SDS011;5350;42.698;23.148;2023-07-22T13:47:08;16.85;;;5.05;;
10605;SDS011;5350;42.698;23.148;2023-07-22T13:49:34;29.65;;;5.40;;
10605;SDS011;5350;42.698;23.148;2023-07-22T13:52:01;18.48;;;5.35;;
10605;SDS011;5350;42.698;23.148;2023-07-22T13:54:29;23.13;;;5.95;;
10605;SDS011;5350;42.698;23.148;2023-07-22T13:56:56;18.88;;;5.30;;
10605;SDS011;5350;42.698;23.148;2023-07-22T13:59:22;20.40;;;5.28;;
10605;SDS011;5350;42.698;23.148;2023-07-22T14:01:49;17.95;;;5.85;;
10605;SDS011;5350;42.698;23.148;2023-07-22T14:04:16;24.95;;;5.82;;
10605;SDS011;5350;42.698;23.148;2023-07-22T14:06:42;21.83;;;5.53;;
10605;SDS011;5350;42.698;23.148;2023-07-22T14:09:09;25.15;;;5.78;;
10605;SDS011;5350;42.698;23.148;2023-07-22T14:11:37;19.33;;;5.68;;
10605;SDS011;5350;42.698;23.148;2023-07-22T14:14:04;24.08;;;5.82;;
10605;SDS011;5350;42.698;23.148;2023-07-22T14:16:30;28.10;;;5.93;;
10605;SDS011;5350;42.698;23.148;2023-07-22T14:18:58;24.65;;;5.70;;
10605;SDS011;5350;42.698;23.148;2023-07-22T14:21:25;20.25;;;5.45;;
10605;SDS011;5350;42.698;23.148;2023-07-22T14:23:52;19.10;;;5.25;;
10605;SDS011;5350;42.698;23.148;2023-07-22T14:26:19;21.15;;;6.43;;
10605;SDS011;5350;42.698;23.148;2023-07-22T14:28:48;24.83;;;5.93;;
10605;SDS011;5350;42.698;23.148;2023-07-22T14:31:14;29.13;;;5.78;;
10605;SDS011;5350;42.698;23.148;2023-07-22T14:33:41;26.27;;;6.13;;
10605;SDS011;5350;42.698;23.148;2023-07-22T14:36:08;23.63;;;6.00;;
10605;SDS011;5350;42.698;23.148;2023-07-22T14:38:35;24.45;;;5.95;;
10605;SDS011;5350;42.698;23.148;2023-07-22T14:41:01;23.63;;;5.90;;